createdAt,value
2018-07-11T00:02:18.027Z,99.90
2018-07-11T00:04:45.904Z,99.90
2018-07-11T00:07:13.690Z,99.90
2018-07-11T00:09:41.423Z,99.90
2018-07-11T00:12:09.247Z,99.90
2018-07-11T00:14:37.023Z,99.90
2018-07-11T00:17:10.283Z,99.90
2018-07-11T00:19:38.118Z,99.90
2018-07-11T00:22:06.090Z,99.90
2018-07-11T00:24:33.927Z,99.90
2018-07-11T00:27:01.787Z,99.90
2018-07-11T00:29:29.648Z,99.90
2018-07-11T00:31:57.790Z,99.90
2018-07-11T00:34:25.618Z,99.90
2018-07-11T00:36:53.464Z,99.90
2018-07-11T00:39:21.261Z,99.90
2018-07-11T00:41:49.144Z,99.90
2018-07-11T00:44:16.976Z,99.90
2018-07-11T00:46:44.841Z,99.90
2018-07-11T00:49:21.184Z,99.90
2018-07-11T00:54:18.420Z,99.90
2018-07-11T00:56:46.265Z,99.90
2018-07-11T00:59:20.479Z,99.90
2018-07-11T01:01:48.365Z,99.90
2018-07-11T01:04:16.256Z,99.90
2018-07-11T01:06:44.094Z,99.90
2018-07-11T01:09:12.008Z,99.90
2018-07-11T01:11:39.832Z,99.90
2018-07-11T01:14:08.696Z,99.90
2018-07-11T01:16:36.567Z,99.90
2018-07-11T01:19:06.995Z,99.90
2018-07-11T01:21:35.414Z,99.90
2018-07-11T01:24:03.237Z,99.90
2018-07-11T01:26:34.028Z,99.90
2018-07-11T01:29:02.011Z,99.90
2018-07-11T01:31:29.834Z,99.90
2018-07-11T01:33:58.062Z,99.90
2018-07-11T01:36:26.211Z,99.90
2018-07-11T01:38:54.764Z,99.90
2018-07-11T01:41:22.584Z,99.90
2018-07-11T01:43:50.413Z,99.90
2018-07-11T01:46:18.267Z,99.90
2018-07-11T01:48:46.247Z,99.90
2018-07-11T01:51:15.134Z,99.90
2018-07-11T01:53:44.000Z,99.90
2018-07-11T01:56:11.847Z,99.90
2018-07-11T01:58:52.535Z,99.90
2018-07-11T02:01:20.431Z,99.90
2018-07-11T02:03:51.172Z,99.90
2018-07-11T02:06:26.686Z,99.90
2018-07-11T02:08:54.652Z,99.90
2018-07-11T02:11:22.702Z,99.90
2018-07-11T02:13:50.752Z,99.90
2018-07-11T02:16:18.710Z,99.90
2018-07-11T02:18:46.659Z,99.90
2018-07-11T02:21:16.757Z,99.90
2018-07-11T02:23:44.709Z,99.90
2018-07-11T02:26:12.736Z,99.90
2018-07-11T02:28:40.740Z,99.90
2018-07-11T02:31:08.771Z,99.90
2018-07-11T02:33:36.715Z,99.90
2018-07-11T02:36:06.718Z,99.90
2018-07-11T02:38:35.838Z,99.90
2018-07-11T02:41:03.787Z,99.90
2018-07-11T02:43:31.665Z,99.90
2018-07-11T02:45:59.725Z,99.90
2018-07-11T02:48:27.707Z,99.90
2018-07-11T02:50:55.804Z,99.90
2018-07-11T02:53:24.311Z,99.90
2018-07-11T02:55:52.912Z,99.90
2018-07-11T02:58:20.870Z,99.90
2018-07-11T03:00:49.356Z,99.90
2018-07-11T03:03:17.531Z,99.90
2018-07-11T03:05:45.377Z,99.90
2018-07-11T03:08:28.796Z,99.90
2018-07-11T03:10:56.655Z,99.90
2018-07-11T03:13:24.451Z,99.90
2018-07-11T03:15:52.250Z,99.90
2018-07-11T03:18:20.621Z,99.90
2018-07-11T03:20:48.397Z,99.90
2018-07-11T03:23:16.263Z,99.90
2018-07-11T03:25:44.087Z,99.90
2018-07-11T03:28:11.901Z,99.90
2018-07-11T03:30:39.758Z,99.90
2018-07-11T03:33:07.562Z,99.90
2018-07-11T03:35:35.299Z,99.90
2018-07-11T03:38:03.081Z,99.90
2018-07-11T03:40:30.844Z,99.90
2018-07-11T03:42:58.702Z,99.90
2018-07-11T03:45:26.573Z,99.90
2018-07-11T03:47:54.358Z,99.90
2018-07-11T03:50:22.213Z,99.90
2018-07-11T03:52:49.968Z,99.90
2018-07-11T03:55:17.766Z,99.90
2018-07-11T03:57:45.533Z,99.90
2018-07-11T04:00:13.474Z,99.90
2018-07-11T04:02:41.356Z,99.90
2018-07-11T04:05:09.118Z,99.90
2018-07-11T04:07:36.833Z,99.90
2018-07-11T04:10:04.739Z,99.90
2018-07-11T04:12:32.493Z,99.90
2018-07-11T04:20:26.195Z,99.90
2018-07-11T04:22:54.040Z,99.90
2018-07-11T04:25:21.962Z,99.90
2018-07-11T04:27:49.779Z,99.90
2018-07-11T04:30:17.586Z,99.90
2018-07-11T04:32:45.557Z,99.90
2018-07-11T04:35:13.467Z,99.90
2018-07-11T04:37:41.354Z,99.90
2018-07-11T04:40:09.128Z,99.90
2018-07-11T04:42:36.999Z,99.90
2018-07-11T04:45:04.749Z,99.90
2018-07-11T04:47:32.631Z,99.90
2018-07-11T04:50:00.526Z,99.90
2018-07-11T04:52:28.410Z,99.90
2018-07-11T04:54:56.253Z,99.90
2018-07-11T04:57:24.135Z,99.90
2018-07-11T04:59:51.889Z,99.90
2018-07-11T05:02:19.652Z,99.90
2018-07-11T05:04:47.459Z,99.90
2018-07-11T05:07:15.215Z,99.90
2018-07-11T05:09:42.975Z,99.90
2018-07-11T05:12:10.774Z,99.90
2018-07-11T05:14:39.570Z,99.90
2018-07-11T05:17:07.365Z,99.90
2018-07-11T05:19:35.169Z,99.90
2018-07-11T05:22:02.937Z,99.90
2018-07-11T05:24:51.236Z,99.90
2018-07-11T05:27:26.680Z,99.90
2018-07-11T05:29:54.504Z,99.90
2018-07-11T05:32:22.307Z,99.90
2018-07-11T05:34:50.067Z,99.90
2018-07-11T05:37:17.838Z,99.90
2018-07-11T05:39:45.572Z,99.90
2018-07-11T05:42:13.386Z,99.90
2018-07-11T05:44:41.164Z,99.90
2018-07-11T05:47:09.954Z,99.90
2018-07-11T05:49:37.760Z,99.90
2018-07-11T05:52:06.600Z,99.90
2018-07-11T05:54:34.737Z,99.90
2018-07-11T05:57:02.792Z,99.90
2018-07-11T05:59:30.592Z,99.90
2018-07-11T06:01:58.615Z,99.90
2018-07-11T06:04:26.412Z,99.90
2018-07-11T06:06:54.189Z,99.90
2018-07-11T06:09:21.989Z,99.90
2018-07-11T06:11:49.776Z,99.90
2018-07-11T06:14:17.581Z,99.90
2018-07-11T06:16:45.366Z,99.90
2018-07-11T06:19:13.143Z,99.90
2018-07-11T06:21:41.383Z,99.90
2018-07-11T06:24:09.170Z,99.90
2018-07-11T06:26:36.906Z,99.90
2018-07-11T06:29:04.688Z,99.90
2018-07-11T06:31:32.463Z,99.90
2018-07-11T06:34:00.238Z,99.90
2018-07-11T06:36:28.008Z,99.90
2018-07-11T06:38:55.791Z,99.50
2018-07-11T06:41:23.515Z,99.10
2018-07-11T06:43:51.309Z,99.10
2018-07-11T06:46:19.088Z,99.50
2018-07-11T06:48:48.870Z,99.90
2018-07-11T06:51:16.628Z,99.60
2018-07-11T06:53:44.413Z,99.10
2018-07-11T06:56:12.293Z,98.90
2018-07-11T06:58:41.081Z,99.00
2018-07-11T07:01:08.974Z,98.60
2018-07-11T07:03:37.013Z,97.40
2018-07-11T07:06:04.753Z,97.70
2018-07-11T07:08:32.539Z,98.00
2018-07-11T07:11:00.412Z,96.00
2018-07-11T07:13:28.298Z,95.70
2018-07-11T07:15:56.169Z,94.20
2018-07-11T07:18:27.685Z,95.30
2018-07-11T07:20:55.492Z,95.30
2018-07-11T07:23:23.490Z,94.60
2018-07-11T07:25:51.324Z,94.60
2018-07-11T07:28:20.217Z,94.30
2018-07-11T07:30:48.131Z,94.40
2018-07-11T07:33:16.255Z,93.00
2018-07-11T07:35:44.158Z,92.90
2018-07-11T07:38:12.073Z,93.30
2018-07-11T07:40:40.155Z,92.10
2018-07-11T07:43:08.261Z,92.10
2018-07-11T07:45:37.112Z,90.70
2018-07-11T07:48:05.011Z,90.90
2018-07-11T07:50:33.254Z,89.70
2018-07-11T07:53:01.824Z,84.80
2018-07-11T07:55:29.959Z,83.40
2018-07-11T07:57:57.920Z,84.60
2018-07-11T08:00:25.844Z,82.40
2018-07-11T08:02:53.735Z,80.00
2018-07-11T08:05:21.609Z,79.80
2018-07-11T08:07:49.461Z,79.60
2018-07-11T08:10:17.288Z,84.50
2018-07-11T08:14:17.358Z,85.00
2018-07-11T08:16:46.549Z,83.00
2018-07-11T08:19:14.511Z,83.50
2018-07-11T08:24:29.992Z,82.20
2018-07-11T08:28:08.771Z,80.70
2018-07-11T08:31:46.225Z,79.40
2018-07-11T08:34:48.618Z,79.10
2018-07-11T08:39:32.732Z,76.20
2018-07-11T08:42:11.855Z,72.40
2018-07-11T08:44:49.272Z,74.80
2018-07-11T08:50:03.430Z,75.00
2018-07-11T08:52:49.616Z,72.40
2018-07-11T08:55:32.554Z,71.80
2018-07-11T09:00:20.921Z,70.40
2018-07-11T09:05:48.403Z,68.80
2018-07-11T09:08:38.555Z,68.80
2018-07-11T09:12:20.722Z,65.90
2018-07-11T09:14:59.464Z,67.50
2018-07-11T09:18:10.257Z,65.80
2018-07-11T09:20:53.081Z,66.20
2018-07-11T09:25:34.526Z,64.30
2018-07-11T09:28:02.452Z,64.40
2018-07-11T09:30:30.302Z,66.60
2018-07-11T09:32:59.065Z,67.10
2018-07-11T09:35:26.821Z,64.80
2018-07-11T09:37:54.844Z,64.80
2018-07-11T09:40:22.693Z,65.00
2018-07-11T09:42:50.653Z,64.50
2018-07-11T09:45:18.493Z,61.80
2018-07-11T09:47:46.620Z,66.20
2018-07-11T09:50:14.502Z,63.30
2018-07-11T09:52:42.401Z,64.10
2018-07-11T09:55:10.199Z,62.30
2018-07-11T09:57:39.257Z,63.60
2018-07-11T10:00:11.898Z,61.30
2018-07-11T10:02:40.021Z,62.00
2018-07-11T10:05:23.737Z,65.60
2018-07-11T10:07:51.999Z,63.00
2018-07-11T10:10:19.852Z,63.00
2018-07-11T10:12:47.866Z,61.90
2018-07-11T10:15:15.686Z,63.30
2018-07-11T10:17:43.667Z,62.30
2018-07-11T10:20:11.484Z,61.40
2018-07-11T10:22:39.570Z,61.70
2018-07-11T10:25:07.435Z,62.70
2018-07-11T10:27:35.564Z,62.30
2018-07-11T10:30:04.075Z,60.90
2018-07-11T10:32:32.271Z,61.30
2018-07-11T10:35:00.420Z,60.10
2018-07-11T10:37:28.546Z,58.00
2018-07-11T10:39:56.510Z,60.50
2018-07-11T10:42:25.313Z,58.40
2018-07-11T10:44:53.426Z,60.00
2018-07-11T10:47:21.750Z,59.70
2018-07-11T10:49:51.500Z,59.40
2018-07-11T10:52:19.765Z,57.90
2018-07-11T10:54:47.909Z,58.30
2018-07-11T10:57:15.786Z,55.90
2018-07-11T10:59:43.810Z,55.10
2018-07-11T11:02:13.452Z,53.60
2018-07-11T11:04:41.300Z,54.40
2018-07-11T11:07:09.094Z,54.20
2018-07-11T11:09:37.167Z,53.60
2018-07-11T11:12:05.036Z,53.90
2018-07-11T11:14:33.070Z,54.40
2018-07-11T11:17:00.883Z,54.50
2018-07-11T11:19:28.748Z,54.40
2018-07-11T11:21:56.526Z,50.80
2018-07-11T11:24:24.522Z,50.30
2018-07-11T11:26:52.379Z,51.10
2018-07-11T11:29:20.220Z,52.90
2018-07-11T11:31:48.103Z,52.70
2018-07-11T11:34:16.116Z,53.30
2018-07-11T11:36:44.257Z,53.10
2018-07-11T11:39:12.082Z,54.60
2018-07-11T11:41:41.038Z,51.90
2018-07-11T11:44:08.835Z,53.50
2018-07-11T11:46:36.680Z,53.60
2018-07-11T11:49:04.534Z,52.00
2018-07-11T11:51:32.418Z,53.00
2018-07-11T11:54:00.229Z,54.80
2018-07-11T11:56:28.177Z,55.70
2018-07-11T11:59:12.384Z,57.30
2018-07-11T12:01:40.255Z,58.70
2018-07-11T12:04:08.051Z,58.50
2018-07-11T12:06:35.933Z,60.80
2018-07-11T12:09:04.020Z,60.60
2018-07-11T12:11:31.870Z,60.80
2018-07-11T12:13:59.705Z,57.30
2018-07-11T12:16:27.463Z,55.80
2018-07-11T12:18:55.347Z,55.70
2018-07-11T12:21:23.270Z,54.90
2018-07-11T12:23:51.256Z,57.40
2018-07-11T12:26:19.170Z,60.00
2018-07-11T12:28:47.122Z,61.00
2018-07-11T12:31:14.923Z,59.70
2018-07-11T12:33:42.757Z,60.40
2018-07-11T12:36:10.517Z,63.50
2018-07-11T12:39:17.604Z,64.40
2018-07-11T12:42:00.832Z,63.80
2018-07-11T12:46:57.664Z,61.90
2018-07-11T12:49:26.921Z,60.20
2018-07-11T12:51:55.965Z,63.50
2018-07-11T12:54:23.890Z,66.10
2018-07-11T12:56:52.703Z,68.50
2018-07-11T12:59:21.872Z,67.60
2018-07-11T13:01:49.746Z,69.00
2018-07-11T13:04:17.623Z,71.30
2018-07-11T13:06:45.487Z,72.10
2018-07-11T13:09:13.283Z,73.30
2018-07-11T13:11:41.106Z,73.90
2018-07-11T13:14:12.440Z,74.70
2018-07-11T13:16:40.416Z,76.00
2018-07-11T13:19:09.092Z,76.30
2018-07-11T13:21:36.968Z,77.20
2018-07-11T13:24:04.769Z,74.70
2018-07-11T13:26:32.566Z,75.60
2018-07-11T13:29:02.453Z,76.70
2018-07-11T13:31:30.215Z,74.50
2018-07-11T13:33:58.220Z,73.70
2018-07-11T13:36:25.991Z,70.30
2018-07-11T13:39:28.410Z,69.80
2018-07-11T13:42:41.052Z,69.50
2018-07-11T13:45:08.892Z,69.30
2018-07-11T13:47:36.682Z,68.70
2018-07-11T13:50:04.598Z,66.30
2018-07-11T13:52:32.499Z,64.50
2018-07-11T13:55:00.429Z,61.30
2018-07-11T13:57:28.526Z,59.50
2018-07-11T13:59:56.492Z,58.60
2018-07-11T14:02:24.584Z,61.00
2018-07-11T14:04:52.628Z,64.30
2018-07-11T14:07:20.505Z,61.60
2018-07-11T14:09:49.541Z,60.60
2018-07-11T14:12:17.424Z,59.60
2018-07-11T14:14:46.481Z,61.50
2018-07-11T14:17:14.392Z,60.90
2018-07-11T14:19:43.322Z,59.20
2018-07-11T14:22:11.272Z,60.30
2018-07-11T14:24:39.938Z,59.30
2018-07-11T14:27:07.798Z,60.60
2018-07-11T14:29:35.701Z,60.50
2018-07-11T14:32:03.787Z,61.20
2018-07-11T14:34:31.838Z,59.90
2018-07-11T14:37:00.930Z,59.30
2018-07-11T14:39:29.362Z,58.80
2018-07-11T14:41:57.258Z,59.70
2018-07-11T14:44:25.525Z,59.90
2018-07-11T14:53:36.693Z,58.60
2018-07-11T14:56:05.539Z,59.50
2018-07-11T14:58:33.436Z,62.00
2018-07-11T15:01:01.431Z,63.00
2018-07-11T15:03:29.262Z,63.80
2018-07-11T15:05:57.079Z,64.50
2018-07-11T15:08:25.302Z,65.00
2018-07-11T15:11:16.790Z,64.70
2018-07-11T15:13:45.071Z,64.80
2018-07-11T15:16:13.086Z,66.10
2018-07-11T15:18:41.231Z,69.30
2018-07-11T15:21:09.405Z,69.50
2018-07-11T15:23:37.641Z,69.20
2018-07-11T15:26:05.764Z,70.00
2018-07-11T15:28:34.058Z,70.00
2018-07-11T15:31:02.333Z,70.90
2018-07-11T15:33:30.353Z,70.70
2018-07-11T15:35:58.453Z,71.40
2018-07-11T15:38:26.882Z,71.80
2018-07-11T15:40:55.267Z,69.80
2018-07-11T15:43:25.281Z,70.80
2018-07-11T15:45:53.849Z,71.00
2018-07-11T15:48:21.895Z,69.40
2018-07-11T15:50:50.948Z,69.20
2018-07-11T15:53:19.953Z,69.50
2018-07-11T15:55:48.549Z,70.10
2018-07-11T15:58:17.188Z,67.50
2018-07-11T16:00:45.219Z,67.10
2018-07-11T16:03:13.913Z,67.60
2018-07-11T16:05:44.446Z,67.80
2018-07-11T16:08:17.411Z,67.00
2018-07-11T16:10:48.976Z,67.70
2018-07-11T16:13:23.974Z,67.60
2018-07-11T16:15:51.958Z,67.60
2018-07-11T16:18:19.776Z,67.90
2018-07-11T16:20:47.783Z,68.90
2018-07-11T16:23:15.675Z,69.50
2018-07-11T16:26:17.702Z,68.90
2018-07-11T16:31:47.695Z,69.50
2018-07-11T16:34:17.577Z,69.60
2018-07-11T16:36:46.341Z,70.70
2018-07-11T16:39:15.828Z,69.80
2018-07-11T16:41:44.096Z,69.40
2018-07-11T16:44:13.069Z,67.50
2018-07-11T16:46:42.106Z,66.60
2018-07-11T16:49:10.396Z,67.10
2018-07-11T16:51:39.781Z,66.10
2018-07-11T16:54:07.909Z,68.20
2018-07-11T16:56:37.407Z,68.30
2018-07-11T16:59:05.822Z,67.60
2018-07-11T17:01:42.406Z,68.10
2018-07-11T17:04:11.775Z,70.50
2018-07-11T17:06:40.120Z,70.20
2018-07-11T17:09:09.166Z,68.90
2018-07-11T17:11:38.214Z,68.70
2018-07-11T17:14:07.512Z,69.00
2018-07-11T17:16:38.874Z,70.50
2018-07-11T17:19:14.625Z,73.40
2018-07-11T17:21:49.082Z,74.30
2018-07-11T17:24:20.438Z,75.20
2018-07-11T17:26:50.824Z,75.70
2018-07-11T17:29:25.494Z,76.70
2018-07-11T17:31:58.835Z,77.00
2018-07-11T17:34:27.393Z,77.70
2018-07-11T17:36:58.142Z,77.40
2018-07-11T17:39:56.190Z,78.10
2018-07-11T17:45:25.629Z,78.40
2018-07-11T17:48:00.079Z,79.00
2018-07-11T17:50:28.798Z,78.90
2018-07-11T17:53:09.666Z,79.40
2018-07-11T17:56:17.924Z,80.40
2018-07-11T17:58:57.779Z,81.40
2018-07-11T18:01:40.578Z,82.20
2018-07-11T18:04:12.128Z,83.20
2018-07-11T18:06:44.849Z,83.90
2018-07-11T18:09:13.843Z,84.50
2018-07-11T18:11:56.687Z,84.30
2018-07-11T18:14:54.969Z,84.50
2018-07-11T18:17:34.803Z,84.30
2018-07-11T18:20:14.972Z,84.60
2018-07-11T18:22:53.577Z,84.90
2018-07-11T18:25:32.735Z,86.40
2018-07-11T18:31:49.371Z,90.50
2018-07-11T18:34:29.419Z,91.20
2018-07-11T18:37:41.140Z,91.60
2018-07-11T18:40:23.248Z,91.80
2018-07-11T18:43:07.919Z,92.10
2018-07-11T18:45:45.675Z,92.20
2018-07-11T18:49:25.749Z,92.60
2018-07-11T18:52:30.053Z,93.20
2018-07-11T18:55:18.207Z,93.70
2018-07-11T18:57:55.839Z,94.00
2018-07-11T19:00:34.906Z,94.30
2018-07-11T19:03:14.064Z,94.70
2018-07-11T19:07:59.255Z,95.40
2018-07-11T19:12:41.311Z,95.60
2018-07-11T19:15:15.475Z,96.20
2018-07-11T19:17:56.625Z,96.80
2018-07-11T19:20:30.439Z,97.00
2018-07-11T19:23:12.712Z,97.20
2018-07-11T19:25:51.752Z,97.60
2018-07-11T19:28:28.692Z,97.60
2018-07-11T19:31:01.570Z,97.70
2018-07-11T19:34:08.092Z,97.60
2018-07-11T19:36:44.740Z,97.30
2018-07-11T19:39:22.757Z,97.00
2018-07-11T19:41:56.143Z,97.00
2018-07-11T19:45:36.199Z,97.10
2018-07-11T19:48:43.286Z,97.30
2018-07-11T19:52:25.280Z,97.20
2018-07-11T19:57:00.953Z,97.30
2018-07-11T19:59:29.000Z,97.60
2018-07-11T20:01:57.052Z,97.80
2018-07-11T20:04:24.993Z,98.70
2018-07-11T20:06:52.953Z,99.60
2018-07-11T20:09:33.890Z,99.90
2018-07-11T20:12:22.673Z,99.80
2018-07-11T20:15:11.615Z,99.90
2018-07-11T20:18:00.800Z,99.90
2018-07-11T20:20:28.918Z,99.90
2018-07-11T20:22:57.360Z,99.90
2018-07-11T20:25:25.768Z,99.90
2018-07-11T20:27:53.935Z,99.90
2018-07-11T20:30:22.054Z,99.90
2018-07-11T20:32:50.283Z,99.90
2018-07-11T20:35:18.460Z,99.90
2018-07-11T20:37:47.422Z,99.90
2018-07-11T20:40:41.565Z,99.90
2018-07-11T20:43:22.067Z,99.90
2018-07-11T20:48:55.167Z,99.90
2018-07-11T20:51:23.111Z,99.90
2018-07-11T20:53:51.029Z,99.90
2018-07-11T20:56:19.066Z,99.90
2018-07-11T21:01:03.354Z,99.90
2018-07-11T21:03:43.809Z,99.90
2018-07-11T21:06:21.945Z,99.90
2018-07-11T21:09:02.634Z,99.90
2018-07-11T21:11:46.624Z,99.90
2018-07-11T21:16:26.841Z,99.90
2018-07-11T21:19:00.379Z,99.90
2018-07-11T21:21:28.541Z,99.90
2018-07-11T21:25:26.022Z,99.90
2018-07-11T21:27:53.838Z,99.90
2018-07-11T21:30:22.832Z,99.90
2018-07-11T21:32:50.742Z,99.90
2018-07-11T21:35:19.709Z,99.90
2018-07-11T21:37:47.598Z,99.90
2018-07-11T21:40:16.570Z,99.90
2018-07-11T21:42:44.509Z,99.90
2018-07-11T21:45:12.502Z,99.90
2018-07-11T21:47:40.395Z,99.90
2018-07-11T21:50:08.264Z,99.90
2018-07-11T21:52:36.190Z,99.90
2018-07-11T21:55:04.019Z,99.90
2018-07-11T21:57:31.973Z,99.90
2018-07-11T21:59:59.792Z,99.90
2018-07-11T22:02:27.860Z,99.90
2018-07-11T22:04:55.696Z,99.90
2018-07-11T22:07:24.521Z,99.90
2018-07-11T22:12:17.846Z,99.90
2018-07-11T22:14:46.608Z,99.90
2018-07-11T22:17:25.705Z,99.90
2018-07-11T22:19:52.412Z,99.90
2018-07-11T22:22:20.156Z,99.90
2018-07-11T22:24:46.913Z,99.90
2018-07-11T22:27:13.618Z,99.90
2018-07-11T22:29:40.990Z,99.90
2018-07-11T22:32:07.765Z,99.90
2018-07-11T22:34:34.498Z,99.90
2018-07-11T22:37:01.189Z,99.90
2018-07-11T22:39:28.706Z,99.90
2018-07-11T22:41:55.414Z,99.90
2018-07-11T22:44:22.209Z,99.90
2018-07-11T22:46:48.875Z,99.90
2018-07-11T22:49:16.116Z,99.90
2018-07-11T22:51:42.824Z,99.90
2018-07-11T22:54:09.527Z,99.90
2018-07-11T22:56:36.987Z,99.90
2018-07-11T22:59:05.061Z,99.90
2018-07-11T23:01:31.831Z,99.90
2018-07-11T23:03:58.574Z,99.90
2018-07-11T23:06:25.285Z,99.90
2018-07-11T23:08:52.013Z,99.90
2018-07-11T23:11:18.761Z,99.90
2018-07-11T23:13:45.448Z,99.90
2018-07-11T23:16:13.187Z,99.90
2018-07-11T23:18:39.932Z,99.90
2018-07-11T23:21:06.685Z,99.90
2018-07-11T23:23:33.423Z,99.90
2018-07-11T23:26:00.186Z,99.90
2018-07-11T23:28:26.959Z,99.90
2018-07-11T23:30:55.719Z,99.90
2018-07-11T23:33:22.496Z,99.90
2018-07-11T23:35:49.232Z,99.90
2018-07-11T23:38:16.007Z,99.90
2018-07-11T23:40:42.814Z,99.90
2018-07-11T23:43:09.513Z,99.90
2018-07-11T23:45:36.290Z,99.90
2018-07-11T23:48:03.651Z,99.90
2018-07-11T23:50:31.057Z,99.90
2018-07-11T23:52:57.851Z,99.90
2018-07-11T23:55:24.635Z,99.90
2018-07-11T23:57:51.331Z,99.90
